Weather


ICAO METAR
KAGC KAGC 180953Z 27013G25KT 8SM OVC008 M01/M01 A2982 RMK AO2 PK WND 23027/0857 CIG 006V010 SLP115 T10061011
KBUF KBUF 191554Z 23011G25KT 9SM -RA FEW036 BKN055 BKN075 BKN140 23/18 A2984 RMK AO2 LTG DSNT NE SLP104 RAB05 P0007 T02280178
KCLE KCLE 191551Z 20020G25KT 10SM FEW055 SCT250 29/16 A2984 RMK AO2 PK WND 21027/1530 SLP097 T02890156
KDTW KDTW 191553Z 20019G26KT 8SM SCT030 SCT050 OVC100 25/16 A2975 RMK AO2 PK WND 21026/1550 RAB01E18 SLP070 P0000 T02500161 $
KERI KERI 181008Z AUTO 36009KT 3SM -SN BR BKN010 OVC014 M04/M07 A2986 RMK AO2 P0001 T10441067 TSNO
KPIT KPIT 191551Z 22010G19KT 10SM FEW040 BKN250 28/17 A2994 RMK AO2 SLP136 T02780172
KROC KROC 180954Z 05016KT 3SM -FZDZSN BR OVC005 M04/M07 A2979 RMK AO2 FZDZB50 SLP099 P0000 I1000 T10441067

Next Generation Radar

This is a composite plot of the radar summary, echo tops, storm movement, TVS and MESO signatures and watch boxes. The radar summary is color coded by precip type. Greens, yellows and reds are rain. Pinks are mixed precipitation (freezing rain, sleet). Blues are snow. NOTE: Radar data is susceptible to a phenomena called anomalous propagation. This generally happens at night and appears as a area of 20 dBZ echos (darkest green) which is centered around each radar site and expands with time. To try and reduce the problem, low echo values near the radar sites have been removed.


GOES 13 Visible Radar

This image is the equivalent of taking a black and white photo of the earth. The bright areas show where the sun is being reflected back into space as a result of clouds or snow cover. Clouds and snow show up white. The thicker the cloud, the brighter the color. Land surfaces show up as gray and ocean surfaces nearly black. The major limitation to visible imagery is that it is only valid during daylight.

GOES 13 Infrared 12 Hour Loop

This type of image shows heat based radiation from the infrared spectrum. In other words, the warmer the surface, the more infrared radiation it emits. For a satellite image, cooler surfaces are bright and warmer surfaces are dark. Since the atmosphere cools as you increase in altitude, clouds would show up as bright areas and land surfaces as dark areas. In addition, low clouds will be more gray and higher clouds will show up more white. Tall thunderstorm clouds will show up as bright white and fog will be hard to discern from land areas. A large advantage of IR is that you can view it 24 hours a day.


Surface Data

This is a composite map contain the following analyses: radar summary (color filled areas), surface data plot (composite station model), frontal locations (in various bold lines) and pressure contours (in thin blue lines).